Time;durP1;ratioP1;P1;durP2;ratioP2;P2;SDS_P1;SDS_P2;PMS_P1;PMS_P2;Temp;Humidity;BMP_temperature;BMP_pressure;BME280_temperature;BME280_humidity;BME280_pressure;Samples;Min_cycle;Max_cycle;Signal;HPM_P1;HPM_P2
2023/09/15 00:00:40;;;;;;;10.55;8.40;;;;;;;21.47;52.92;95141.97;4932551;29;20023;-80
2023/09/15 00:03:06;;;;;;;10.30;7.88;;;;;;;21.44;52.66;95140.16;4949399;29;20383;-80
2023/09/15 00:05:33;;;;;;;10.07;8.23;;;;;;;21.40;53.32;95141.72;4948998;29;20027;-81
2023/09/15 00:08:00;;;;;;;12.43;8.30;;;;;;;21.38;53.10;95150.56;4916761;29;20032;-81
2023/09/15 00:10:26;;;;;;;12.32;8.02;;;;;;;21.38;53.54;95149.81;4931052;29;20030;-79
2023/09/15 00:12:51;;;;;;;11.57;8.45;;;;;;;21.36;53.46;95155.91;4932527;29;20078;-79
2023/09/15 00:15:17;;;;;;;10.05;8.40;;;;;;;21.30;53.72;95143.94;4930680;29;20495;-80
2023/09/15 00:17:44;;;;;;;11.73;8.45;;;;;;;21.30;53.82;95149.53;4932329;29;20035;-80
2023/09/15 00:20:13;;;;;;;9.07;8.18;;;;;;;21.26;53.47;95146.19;4931200;29;20446;-80
2023/09/15 00:22:49;;;;;;;9.88;7.97;;;;;;;21.29;53.45;95156.41;4947450;29;20063;-80
2023/09/15 00:25:18;;;;;;;12.38;9.20;;;;;;;21.21;54.01;95141.34;4932124;29;20034;-79
2023/09/15 00:27:46;;;;;;;11.13;8.38;;;;;;;21.24;54.06;95150.75;4947783;29;20027;-79
2023/09/15 00:30:13;;;;;;;11.65;8.75;;;;;;;21.12;54.22;95141.56;4932275;29;20074;-79
2023/09/15 00:32:39;;;;;;;10.65;9.40;;;;;;;21.17;54.11;95138.78;4930200;29;20034;-79
2023/09/15 00:35:05;;;;;;;9.50;8.50;;;;;;;21.15;54.20;95146.91;4949644;29;20015;-79
2023/09/15 00:37:30;;;;;;;14.77;9.13;;;;;;;21.08;54.19;95141.03;4930405;29;20039;-79
2023/09/15 00:39:57;;;;;;;9.77;8.77;;;;;;;21.08;54.10;95147.38;4948824;29;20099;-80
2023/09/15 00:42:22;;;;;;;10.88;9.35;;;;;;;21.03;54.38;95150.16;4948851;29;20031;-79
2023/09/15 00:44:48;;;;;;;10.02;9.02;;;;;;;20.98;54.65;95142.50;4947797;29;20023;-79
2023/09/15 00:47:14;;;;;;;12.85;9.45;;;;;;;20.99;54.45;95142.03;4931858;29;20038;-79
2023/09/15 00:49:39;;;;;;;9.73;8.73;;;;;;;20.99;54.73;95149.63;4930201;29;20023;-78
2023/09/15 00:52:05;;;;;;;12.55;9.48;;;;;;;20.95;54.40;95138.69;4949180;29;20036;-79
2023/09/15 00:54:31;;;;;;;12.38;9.27;;;;;;;20.89;54.60;95140.69;4930033;29;20158;-78
2023/09/15 00:56:56;;;;;;;11.88;8.70;;;;;;;20.91;54.89;95150.09;4949029;29;20030;-79
2023/09/15 00:59:22;;;;;;;10.57;8.80;;;;;;;20.89;54.91;95151.88;4930854;29;20409;-79
2023/09/15 01:01:48;;;;;;;10.48;9.15;;;;;;;20.89;54.66;95151.88;4947796;29;20019;-79
2023/09/15 01:04:13;;;;;;;14.23;9.57;;;;;;;20.88;54.83;95150.34;4915498;29;20031;-80
2023/09/15 01:06:42;;;;;;;9.68;8.45;;;;;;;20.85;54.85;95162.50;4930138;29;20117;-79
2023/09/15 01:09:08;;;;;;;17.67;10.05;;;;;;;20.87;55.14;95165.56;4931747;29;20038;-79
2023/09/15 01:11:34;;;;;;;10.20;9.02;;;;;;;20.83;55.20;95171.41;4946845;29;20042;-79
2023/09/15 01:13:59;;;;;;;13.40;9.32;;;;;;;20.78;55.27;95166.53;4948932;29;20019;-79
2023/09/15 01:16:37;;;;;;;10.00;8.93;;;;;;;20.82;55.42;95175.47;4930379;29;20549;-79
2023/09/15 01:19:36;;;;;;;10.25;8.75;;;;;;;20.86;54.96;95180.78;4930915;29;20521;-79
2023/09/15 01:22:23;;;;;;;11.48;8.38;;;;;;;20.86;55.08;95181.56;4948633;29;20043;-79
2023/09/15 01:25:04;;;;;;;11.73;8.73;;;;;;;20.86;54.96;95186.38;4947087;29;20035;-77
2023/09/15 01:27:51;;;;;;;12.38;9.30;;;;;;;20.82;54.61;95178.25;4915529;29;20082;-79
2023/09/15 01:30:18;;;;;;;10.10;8.65;;;;;;;20.80;54.87;95177.19;4931292;29;20422;-79
2023/09/15 01:32:43;;;;;;;14.13;9.43;;;;;;;20.81;55.01;95171.09;4929596;29;20113;-79
2023/09/15 01:35:09;;;;;;;11.88;9.82;;;;;;;20.84;54.88;95169.34;4947434;29;20469;-79
2023/09/15 01:37:34;;;;;;;10.70;8.85;;;;;;;20.81;54.51;95173.91;4932515;29;20054;-77
2023/09/15 01:40:00;;;;;;;12.35;8.82;;;;;;;20.81;54.60;95173.13;4954769;29;20027;-79
2023/09/15 01:42:26;;;;;;;11.35;8.80;;;;;;;20.77;54.86;95170.59;4953951;28;20110;-78
2023/09/15 01:44:52;;;;;;;14.60;9.73;;;;;;;20.73;55.06;95183.25;4954132;28;20035;-79
2023/09/15 01:47:22;;;;;;;11.45;8.68;;;;;;;20.72;54.97;95179.69;4954512;28;20476;-78
2023/09/15 01:49:52;;;;;;;11.48;9.52;;;;;;;20.69;55.03;95189.06;4936150;29;20033;-77
2023/09/15 01:52:19;;;;;;;12.60;8.50;;;;;;;20.67;54.98;95186.00;4953253;28;20039;-79
2023/09/15 01:54:45;;;;;;;9.55;8.57;;;;;;;20.65;55.23;95188.53;4935456;29;20030;-79
2023/09/15 01:57:11;;;;;;;11.40;8.88;;;;;;;20.64;55.29;95182.19;4921279;29;20027;-80
2023/09/15 01:59:36;;;;;;;11.80;9.52;;;;;;;20.65;55.26;95188.53;4953810;29;20020;-78
2023/09/15 02:02:02;;;;;;;12.90;9.05;;;;;;;20.64;55.12;95196.16;4936627;29;20031;-79
2023/09/15 02:04:27;;;;;;;10.93;9.63;;;;;;;20.65;55.20;95197.69;4936747;29;20031;-79
2023/09/15 02:06:53;;;;;;;10.63;8.65;;;;;;;20.63;55.41;95196.63;4936071;29;20046;-80
2023/09/15 02:09:18;;;;;;;13.00;8.85;;;;;;;20.63;55.08;95196.63;4937098;29;20031;-80
2023/09/15 02:11:44;;;;;;;10.90;9.73;;;;;;;20.62;55.63;95197.91;4935835;29;20102;-79
2023/09/15 02:14:09;;;;;;;12.00;8.88;;;;;;;20.56;55.34;95197.09;4954651;29;20457;-79
2023/09/15 02:16:35;;;;;;;11.00;9.73;;;;;;;20.58;55.46;95208.53;4952908;28;20050;-79
2023/09/15 02:19:00;;;;;;;11.98;9.27;;;;;;;20.59;55.40;95207.28;4937856;29;20523;-80
2023/09/15 02:21:26;;;;;;;13.65;9.15;;;;;;;20.55;55.81;95201.16;4954452;28;20031;-79
2023/09/15 02:23:51;;;;;;;11.30;8.95;;;;;;;20.55;55.91;95201.94;4953849;29;20019;-80
2023/09/15 02:26:17;;;;;;;13.13;9.60;;;;;;;20.52;55.54;95213.31;4954319;29;20019;-79
2023/09/15 02:28:42;;;;;;;12.20;9.27;;;;;;;20.51;56.00;95206.97;4936175;29;20447;-78
2023/09/15 02:31:08;;;;;;;13.13;9.32;;;;;;;20.52;55.90;95204.94;4936784;28;20031;-79
2023/09/15 02:33:34;;;;;;;10.45;9.10;;;;;;;20.52;56.05;95211.28;4935621;29;20477;-79
2023/09/15 02:36:00;;;;;;;11.05;9.13;;;;;;;20.52;55.61;95216.88;4954184;28;20459;-79
2023/09/15 02:38:26;;;;;;;11.32;9.38;;;;;;;20.46;56.09;95210.47;4953132;28;20042;-79
2023/09/15 02:40:51;;;;;;;11.55;8.93;;;;;;;20.49;56.14;95215.09;4953691;29;20027;-79
2023/09/15 02:43:17;;;;;;;9.73;8.73;;;;;;;20.32;56.31;95198.16;4954085;28;20114;-79
2023/09/15 02:45:42;;;;;;;12.65;8.70;;;;;;;20.36;56.54;95206.31;4935994;28;20042;-79
2023/09/15 02:48:07;;;;;;;10.80;9.40;;;;;;;20.37;56.16;95211.41;4953376;28;20094;-79
2023/09/15 02:50:33;;;;;;;12.98;9.55;;;;;;;20.33;56.45;95210.84;4949101;29;20117;-79
2023/09/15 02:53:00;;;;;;;11.02;8.82;;;;;;;20.38;56.24;95214.97;4933598;29;20045;-80
2023/09/15 02:55:25;;;;;;;10.65;9.20;;;;;;;20.32;56.43;95219.72;4916409;29;20028;-79
2023/09/15 02:57:51;;;;;;;12.13;8.88;;;;;;;20.30;56.63;95223.03;4933909;29;20089;-79
2023/09/15 03:00:17;;;;;;;12.40;9.45;;;;;;;20.28;56.85;95222.72;4916666;29;20027;-79
2023/09/15 03:02:44;;;;;;;12.88;8.80;;;;;;;20.27;56.75;95223.22;4950497;29;20042;-79
2023/09/15 03:05:09;;;;;;;10.00;9.00;;;;;;;20.29;56.80;95217.91;4933287;29;20505;-79
2023/09/15 03:07:39;;;;;;;10.35;8.98;;;;;;;20.26;56.71;95228.06;4949868;29;20031;-79
2023/09/15 03:10:08;;;;;;;11.15;9.32;;;;;;;20.20;56.87;95238.41;4933965;29;20031;-79
2023/09/15 03:12:34;;;;;;;10.60;9.00;;;;;;;20.19;56.87;95228.50;4932012;29;20038;-79
2023/09/15 03:15:04;;;;;;;13.93;10.05;;;;;;;20.18;56.79;95232.53;4933484;29;20031;-79
2023/09/15 03:17:30;;;;;;;12.02;9.55;;;;;;;20.28;56.73;95235.94;4950010;28;20094;-79
2023/09/15 03:19:55;;;;;;;11.13;9.02;;;;;;;20.17;57.26;95237.34;4950588;29;20027;-79
2023/09/15 03:22:20;;;;;;;11.60;9.50;;;;;;;20.15;57.35;95237.09;4950216;29;20059;-78
2023/09/15 03:24:46;;;;;;;13.80;9.63;;;;;;;20.14;56.91;95241.13;4949639;29;20031;-80
2023/09/15 03:27:12;;;;;;;13.77;9.43;;;;;;;20.12;56.92;95254.03;4950188;29;20169;-79
2023/09/15 03:29:37;;;;;;;13.50;9.65;;;;;;;20.04;57.24;95244.59;4931918;29;20027;-79
2023/09/15 03:32:03;;;;;;;11.75;9.25;;;;;;;20.05;56.86;95240.53;4950277;29;20043;-80
2023/09/15 03:34:28;;;;;;;14.23;9.95;;;;;;;20.04;57.16;95244.59;4949200;29;20495;-79
2023/09/15 03:36:53;;;;;;;11.77;9.55;;;;;;;20.04;57.01;95253.72;4950226;29;20040;-78
2023/09/15 03:39:19;;;;;;;11.88;9.18;;;;;;;20.02;57.22;95252.69;4949529;29;20023;-80
2023/09/15 03:41:44;;;;;;;11.73;9.40;;;;;;;20.01;56.77;95249.09;4949670;29;20087;-78
2023/09/15 03:44:10;;;;;;;12.00;10.38;;;;;;;19.95;56.97;95247.50;4949802;29;20478;-80
2023/09/15 03:46:35;;;;;;;10.45;8.75;;;;;;;19.95;57.01;95251.06;4931837;29;20031;-78
2023/09/15 03:49:03;;;;;;;10.85;8.60;;;;;;;19.93;57.00;95247.25;4950317;29;20027;-79
2023/09/15 03:51:29;;;;;;;11.60;8.55;;;;;;;19.88;56.79;95234.78;4947088;29;20058;-78
2023/09/15 03:53:55;;;;;;;13.18;9.10;;;;;;;19.92;56.94;95245.72;4917040;29;20024;-79
2023/09/15 03:56:20;;;;;;;12.65;8.27;;;;;;;19.93;56.31;95247.25;4948630;29;20074;-79
2023/09/15 03:58:48;;;;;;;10.05;7.60;;;;;;;19.94;56.23;95251.56;4949879;29;20033;-79
2023/09/15 04:01:14;;;;;;;12.63;8.10;;;;;;;19.83;56.28;95249.41;4931786;29;20027;-78
2023/09/15 04:03:40;;;;;;;11.27;8.48;;;;;;;19.83;56.28;95252.97;4931919;29;20035;-79
2023/09/15 04:06:06;;;;;;;10.55;7.93;;;;;;;19.77;56.49;95246.56;4932715;29;20031;-79
2023/09/15 04:08:32;;;;;;;9.25;7.53;;;;;;;19.73;56.29;95254.41;4931242;29;20383;-79
2023/09/15 04:10:57;;;;;;;11.73;8.07;;;;;;;19.70;56.75;95262.97;4932499;29;20031;-78
2023/09/15 04:13:23;;;;;;;10.27;7.50;;;;;;;19.72;56.74;95257.66;4948146;29;20071;-78
2023/09/15 04:15:51;;;;;;;10.77;7.53;;;;;;;19.62;56.89;95252.25;4932368;29;20034;-80
2023/09/15 04:18:18;;;;;;;10.65;7.70;;;;;;;19.66;56.91;95262.41;4931129;29;20686;-79
2023/09/15 04:20:43;;;;;;;9.23;7.90;;;;;;;19.55;57.22;95263.00;4931845;29;20110;-82
2023/09/15 04:23:09;;;;;;;10.77;8.13;;;;;;;19.60;57.39;95273.50;4915340;29;20123;-78
2023/09/15 04:25:34;;;;;;;9.98;7.97;;;;;;;19.58;57.50;95271.19;4930382;29;20391;-80
2023/09/15 04:28:00;;;;;;;10.05;7.93;;;;;;;19.54;57.62;95270.59;4932226;29;20098;-80
2023/09/15 04:30:25;;;;;;;11.20;7.95;;;;;;;19.60;57.61;95279.06;4947714;29;20023;-80
2023/09/15 04:32:50;;;;;;;8.63;7.63;;;;;;;19.53;57.88;95274.66;4949449;29;20096;-80
2023/09/15 04:35:17;;;;;;;11.25;8.13;;;;;;;19.55;57.94;95279.72;4947918;29;20042;-79
2023/09/15 04:37:42;;;;;;;11.35;8.75;;;;;;;19.48;57.60;95274.56;4948849;29;20113;-80
2023/09/15 04:40:08;;;;;;;10.60;8.68;;;;;;;19.49;58.01;95282.44;4931208;29;20027;-79
2023/09/15 04:42:33;;;;;;;10.40;8.63;;;;;;;19.49;58.09;95284.47;4930713;29;20512;-79
2023/09/15 04:45:00;;;;;;;11.57;7.90;;;;;;;19.54;57.97;95283.78;4931488;29;20396;-81
2023/09/15 04:47:30;;;;;;;11.77;8.80;;;;;;;19.49;57.93;95281.69;4930552;29;20483;-81
2023/09/15 04:49:55;;;;;;;15.80;8.73;;;;;;;19.49;58.59;95296.38;4916337;29;20024;-81
2023/09/15 04:52:20;;;;;;;13.13;8.75;;;;;;;19.50;58.39;95289.59;4947548;29;20030;-81
2023/09/15 04:54:46;;;;;;;21.02;10.35;;;;;;;19.50;58.29;95289.59;4948987;29;20027;-81
2023/09/15 04:57:11;;;;;;;11.20;8.40;;;;;;;19.61;58.19;95302.91;4930744;29;20345;-81
2023/09/15 04:59:37;;;;;;;12.10;8.57;;;;;;;19.56;58.42;95296.00;4914892;29;20023;-81
2023/09/15 05:02:04;;;;;;;9.65;7.60;;;;;;;19.54;57.93;95292.13;4948380;29;20031;-79
2023/09/15 05:04:29;;;;;;;11.32;8.02;;;;;;;19.58;58.00;95301.06;4947406;29;20530;-80
2023/09/15 05:06:55;;;;;;;9.75;8.13;;;;;;;19.54;58.33;95290.13;4948783;29;20042;-79
2023/09/15 05:09:20;;;;;;;10.70;8.20;;;;;;;19.63;58.61;95303.97;4947250;29;20102;-79
2023/09/15 05:11:46;;;;;;;10.38;7.97;;;;;;;19.65;58.57;95303.47;4948119;28;20127;-79
2023/09/15 05:14:12;;;;;;;10.48;8.45;;;;;;;19.57;58.77;95299.53;4930377;29;20151;-80
2023/09/15 05:16:37;;;;;;;10.75;8.68;;;;;;;19.68;58.54;95301.75;4948057;28;20114;-81
2023/09/15 05:19:03;;;;;;;11.00;8.38;;;;;;;19.71;58.79;95307.09;4948016;29;20155;-80
2023/09/15 05:21:28;;;;;;;10.82;8.48;;;;;;;19.68;58.68;95312.91;4947517;29;20122;-80
2023/09/15 05:23:53;;;;;;;11.70;8.32;;;;;;;19.66;59.04;95307.78;4931174;29;20027;-80
2023/09/15 05:26:19;;;;;;;14.60;8.90;;;;;;;19.66;59.14;95309.81;4930534;29;20030;-80
2023/09/15 05:28:44;;;;;;;18.73;10.65;;;;;;;19.64;58.91;95299.16;4948627;29;20410;-81
2023/09/15 05:31:12;;;;;;;11.80;9.32;;;;;;;19.75;59.04;95316.03;4914429;29;20035;-80
2023/09/15 05:33:37;;;;;;;12.20;9.07;;;;;;;19.68;59.29;95308.09;4930947;29;20035;-79
2023/09/15 05:36:04;;;;;;;10.77;8.70;;;;;;;19.74;59.19;95310.94;4929845;29;20135;-79
2023/09/15 05:38:29;;;;;;;12.02;9.18;;;;;;;19.77;59.25;95307.16;4930753;29;20019;-79
2023/09/15 05:40:55;;;;;;;11.93;8.07;;;;;;;19.77;59.45;95313.50;4930980;29;20031;-79
2023/09/15 05:43:21;;;;;;;9.88;8.88;;;;;;;19.82;59.92;95314.84;4947361;29;20027;-78
2023/09/15 05:45:47;;;;;;;12.73;9.15;;;;;;;19.83;59.83;95321.94;4947954;29;20039;-80
2023/09/15 05:48:17;;;;;;;13.00;9.43;;;;;;;19.84;59.98;95321.47;4929791;29;20122;-78
2023/09/15 05:50:46;;;;;;;11.90;9.88;;;;;;;19.96;60.19;95325.16;4948150;29;20027;-79
2023/09/15 05:53:11;;;;;;;14.43;10.68;;;;;;;19.99;60.25;95326.97;4913906;29;20042;-80
2023/09/15 05:55:36;;;;;;;13.35;8.98;;;;;;;19.96;60.45;95314.00;4947637;29;20402;-79
2023/09/15 05:58:02;;;;;;;14.95;9.40;;;;;;;19.98;60.44;95321.88;4947598;29;20052;-79
2023/09/15 06:00:27;;;;;;;12.52;9.35;;;;;;;19.96;60.28;95319.59;4929986;29;20030;-81
2023/09/15 06:02:52;;;;;;;15.23;9.20;;;;;;;19.96;60.46;95325.16;4930261;29;20460;-80
2023/09/15 06:05:20;;;;;;;13.73;9.65;;;;;;;20.00;60.47;95314.53;4929422;29;20028;-79
2023/09/15 06:07:49;;;;;;;11.20;9.23;;;;;;;20.11;60.44;95322.28;4947948;29;20110;-79
2023/09/15 06:10:15;;;;;;;10.57;9.25;;;;;;;20.13;60.42;95336.53;4929264;29;20044;-79
2023/09/15 06:12:40;;;;;;;10.13;8.75;;;;;;;20.17;59.77;95325.91;4930496;29;20031;-79
2023/09/15 06:15:06;;;;;;;11.45;9.18;;;;;;;20.19;59.92;95328.97;4929713;29;20034;-79
2023/09/15 06:17:33;;;;;;;14.35;9.55;;;;;;;20.22;59.44;95321.63;4929955;29;20850;-79
2023/09/15 06:19:59;;;;;;;10.35;8.45;;;;;;;20.22;59.60;95313.25;4930846;29;20038;-79
2023/09/15 06:22:25;;;;;;;10.38;9.15;;;;;;;20.26;59.39;95320.16;4929598;29;20030;-79
2023/09/15 06:24:50;;;;;;;14.52;9.63;;;;;;;20.32;59.22;95326.56;4933723;29;20019;-79
2023/09/15 06:27:16;;;;;;;13.77;10.02;;;;;;;20.37;59.18;95325.88;4949917;29;20050;-80
2023/09/15 06:29:41;;;;;;;9.57;8.02;;;;;;;20.43;58.82;95317.56;4933998;29;20459;-79
2023/09/15 06:32:07;;;;;;;9.65;8.38;;;;;;;20.52;58.49;95327.81;4932735;29;20031;-80
2023/09/15 06:34:32;;;;;;;14.77;8.50;;;;;;;20.63;58.11;95327.91;4933966;29;20036;-80
2023/09/15 06:36:58;;;;;;;12.82;8.98;;;;;;;20.68;58.07;95325.16;4933018;29;20047;-79
2023/09/15 06:39:23;;;;;;;11.52;9.27;;;;;;;20.72;58.09;95327.00;4933094;29;20242;-78
2023/09/15 06:41:50;;;;;;;12.05;9.23;;;;;;;20.76;58.28;95328.31;4933533;29;20065;-80
2023/09/15 06:44:15;;;;;;;11.43;8.93;;;;;;;20.94;57.36;95324.38;4932704;29;20042;-80
2023/09/15 06:46:40;;;;;;;10.15;8.50;;;;;;;20.91;57.47;95323.34;4950768;29;20027;-80
2023/09/15 06:49:06;;;;;;;12.50;8.98;;;;;;;21.03;57.17;95317.84;4932347;29;20062;-80
2023/09/15 06:51:32;;;;;;;11.85;8.05;;;;;;;21.08;56.86;95326.25;4933687;29;20031;-79
2023/09/15 06:53:58;;;;;;;9.60;8.27;;;;;;;21.19;56.43;95323.53;4949809;29;20102;-80
2023/09/15 06:56:26;;;;;;;10.70;8.35;;;;;;;21.26;55.52;95319.53;4933276;29;20031;-81
2023/09/15 06:58:51;;;;;;;10.23;7.53;;;;;;;21.40;55.20;95320.69;4933225;29;20027;-81
2023/09/15 07:01:17;;;;;;;12.35;10.23;;;;;;;21.52;54.26;95318.72;4950969;29;20019;-80
2023/09/15 07:03:42;;;;;;;11.02;8.60;;;;;;;21.61;54.08;95329.66;4950674;29;20339;-81
2023/09/15 07:06:08;;;;;;;10.65;8.10;;;;;;;21.66;53.88;95323.34;4915864;29;20475;-77
2023/09/15 07:08:33;;;;;;;12.73;8.60;;;;;;;21.74;53.97;95330.78;4949749;29;20102;-77
2023/09/15 07:10:58;;;;;;;13.02;9.20;;;;;;;21.86;53.74;95323.19;4949164;29;20082;-77
2023/09/15 07:13:24;;;;;;;10.52;7.85;;;;;;;21.93;53.03;95319.91;4950400;29;20031;-75
2023/09/15 07:15:49;;;;;;;8.60;7.30;;;;;;;22.01;53.02;95309.75;4949692;28;20115;-76
2023/09/15 07:18:15;;;;;;;12.43;7.95;;;;;;;22.11;52.75;95320.78;4949974;29;20038;-75
2023/09/15 07:20:40;;;;;;;9.77;7.97;;;;;;;22.18;52.92;95312.66;4950327;29;20094;-72
2023/09/15 07:23:06;;;;;;;10.45;8.30;;;;;;;22.35;51.80;95309.88;4949051;29;20023;-79
2023/09/15 07:25:31;;;;;;;9.52;7.63;;;;;;;22.41;51.68;95309.91;4950058;29;20023;-78
2023/09/15 07:27:56;;;;;;;12.30;7.43;;;;;;;22.50;51.69;95318.09;4931499;29;20102;-80
2023/09/15 07:30:22;;;;;;;10.63;7.53;;;;;;;22.63;51.23;95309.19;4933893;29;20051;-81
2023/09/15 07:32:48;;;;;;;9.27;7.75;;;;;;;22.75;50.62;95308.69;4931676;29;20031;-83
2023/09/15 07:35:14;;;;;;;10.20;8.13;;;;;;;22.87;50.76;95319.88;4949915;28;20046;-81
2023/09/15 07:37:40;;;;;;;10.45;7.57;;;;;;;22.97;50.18;95313.56;4949541;29;20467;-83
2023/09/15 07:40:07;;;;;;;12.38;7.93;;;;;;;23.08;49.79;95315.59;4949952;29;20482;-85
2023/09/15 07:42:33;;;;;;;9.80;7.93;;;;;;;23.19;49.65;95318.41;4948826;29;20033;-84
2023/09/15 07:44:59;;;;;;;14.18;8.07;;;;;;;23.29;49.93;95316.84;4931951;29;20034;-82
2023/09/15 07:47:25;;;;;;;9.52;7.68;;;;;;;23.39;49.42;95316.56;4934098;29;20035;-87
2023/09/15 07:49:51;;;;;;;9.77;7.88;;;;;;;23.49;49.38;95315.78;4949639;29;20032;-88
2023/09/15 07:52:18;;;;;;;10.80;7.47;;;;;;;23.58;49.10;95306.34;4934170;29;20043;-87
2023/09/15 07:54:43;;;;;;;10.40;7.15;;;;;;;23.73;48.32;95317.28;4933573;29;20057;-87
2023/09/15 07:57:09;;;;;;;9.95;7.15;;;;;;;23.85;47.71;95316.72;4933376;29;20058;-87
2023/09/15 07:59:34;;;;;;;10.35;7.43;;;;;;;24.00;47.43;95304.44;4934119;29;20353;-83
2023/09/15 08:02:00;;;;;;;13.48;7.40;;;;;;;24.01;47.23;95306.72;4950864;29;20086;-88
2023/09/15 08:04:25;;;;;;;11.43;8.13;;;;;;;24.14;46.96;95311.00;4937382;29;20050;-90
2023/09/15 08:06:51;;;;;;;11.52;9.15;;;;;;;24.19;46.46;95294.13;4952897;29;20035;-83
2023/09/15 08:09:17;;;;;;;10.13;7.55;;;;;;;24.37;46.45;95301.22;4933236;29;20106;-81
2023/09/15 08:11:42;;;;;;;10.35;8.27;;;;;;;24.52;45.62;95310.06;4915520;29;20499;-83
2023/09/15 08:14:08;;;;;;;11.90;7.68;;;;;;;24.63;45.68;95301.56;4916189;29;20062;-83
2023/09/15 08:16:33;;;;;;;10.68;7.53;;;;;;;24.77;45.74;95305.28;4955509;28;20448;-85
2023/09/15 08:18:59;;;;;;;10.30;7.97;;;;;;;24.91;44.88;95300.59;4936734;29;20038;-80
2023/09/15 08:21:25;;;;;;;11.57;7.43;;;;;;;25.02;44.81;95303.31;4949935;29;20023;-81
2023/09/15 08:23:51;;;;;;;9.50;7.28;;;;;;;25.19;44.37;95289.16;4931403;29;20034;-81
2023/09/15 08:26:16;;;;;;;8.70;7.00;;;;;;;25.39;43.55;95301.97;4932354;29;20031;-83
2023/09/15 08:28:42;;;;;;;10.75;7.25;;;;;;;25.61;43.29;95298.19;4948356;29;20031;-82
2023/09/15 08:31:08;;;;;;;10.55;8.50;;;;;;;25.78;42.93;95290.34;4916368;29;20039;-80
2023/09/15 08:33:34;;;;;;;8.15;6.75;;;;;;;25.98;42.56;95291.91;4931295;29;20532;-83
2023/09/15 08:35:59;;;;;;;11.98;7.70;;;;;;;26.20;42.14;95297.25;4931540;29;20450;-84
2023/09/15 08:38:25;;;;;;;18.45;7.80;;;;;;;26.44;41.44;95287.25;4949070;29;20562;-81
2023/09/15 08:40:57;;;;;;;16.42;7.55;;;;;;;26.67;40.97;95291.25;4932722;29;20047;-86
2023/09/15 08:43:23;;;;;;;14.40;8.23;;;;;;;26.84;40.61;95284.56;4948092;29;20023;-84
2023/09/15 08:45:49;;;;;;;9.90;7.28;;;;;;;27.03;40.34;95285.31;4931210;28;20038;-84
2023/09/15 08:48:20;;;;;;;10.23;7.68;;;;;;;27.29;39.39;95283.84;4931699;29;20063;-84
2023/09/15 08:50:46;;;;;;;8.73;7.10;;;;;;;27.46;39.15;95270.97;4916330;29;20581;-84
2023/09/15 08:53:12;;;;;;;10.25;7.38;;;;;;;27.66;39.03;95278.03;4933058;29;20031;-83
2023/09/15 08:55:38;;;;;;;9.90;7.25;;;;;;;27.88;38.05;95276.13;4931917;29;20488;-85
2023/09/15 08:58:03;;;;;;;11.50;8.70;;;;;;;28.04;38.50;95267.31;4916342;29;20035;-86
2023/09/15 09:00:29;;;;;;;8.20;6.65;;;;;;;28.17;37.40;95268.59;4932769;29;20043;-82
2023/09/15 09:02:55;;;;;;;10.02;7.18;;;;;;;28.26;37.16;95262.47;4946502;29;20110;-80
2023/09/15 09:05:21;;;;;;;10.60;7.00;;;;;;;28.46;36.88;95258.97;4931306;29;20474;-81
2023/09/15 09:08:24;;;;;;;11.65;7.13;;;;;;;28.62;36.65;95261.94;4931753;29;20475;-94
2023/09/15 09:10:49;;;;;;;10.17;6.63;;;;;;;28.62;36.22;95268.38;4918413;29;20031;-93
2023/09/15 09:13:15;;;;;;;8.40;6.28;;;;;;;28.61;36.22;95261.19;4917087;29;20333;-92
2023/09/15 09:15:41;;;;;;;8.60;6.82;;;;;;;28.72;36.23;95254.50;4932987;29;20042;-92
2023/09/15 09:18:15;;;;;;;8.65;6.88;;;;;;;28.91;36.17;95265.66;4933106;29;20027;-91
2023/09/15 09:20:42;;;;;;;9.93;6.80;;;;;;;29.11;35.72;95259.25;4932472;29;20062;-81
2023/09/15 09:23:09;;;;;;;10.68;6.78;;;;;;;29.31;35.68;95266.22;4932463;29;20031;-89
2023/09/15 09:25:35;;;;;;;8.23;6.35;;;;;;;29.48;35.01;95265.78;4922867;29;20027;-87
2023/09/15 09:28:01;;;;;;;10.13;7.28;;;;;;;29.77;34.42;95264.50;4939426;29;20024;-86
2023/09/15 09:30:29;;;;;;;8.45;6.57;;;;;;;30.08;33.93;95262.56;4931348;29;20030;-88
2023/09/15 09:32:55;;;;;;;11.55;6.82;;;;;;;30.32;32.69;95260.63;4931849;29;20046;-85
2023/09/15 09:35:21;;;;;;;11.05;8.27;;;;;;;30.58;32.49;95266.00;4930069;29;20102;-82
2023/09/15 09:37:47;;;;;;;7.88;6.53;;;;;;;30.64;32.22;95266.59;4914926;29;20051;-85
2023/09/15 09:40:12;;;;;;;10.65;6.70;;;;;;;30.77;32.51;95262.88;4914490;29;20721;-86
2023/09/15 09:42:38;;;;;;;8.23;6.95;;;;;;;31.06;32.00;95251.38;4930614;29;20023;-81
2023/09/15 09:45:04;;;;;;;9.88;7.63;;;;;;;31.24;32.29;95255.16;4915224;29;20130;-86
2023/09/15 09:47:29;;;;;;;10.82;7.40;;;;;;;31.41;31.77;95250.44;4929568;29;20058;-83
2023/09/15 09:49:55;;;;;;;9.30;7.00;;;;;;;31.61;31.64;95256.50;4931610;29;20039;-85
2023/09/15 09:52:25;;;;;;;8.35;6.85;;;;;;;31.86;30.85;95251.72;4929415;29;20419;-91
2023/09/15 09:54:50;;;;;;;11.32;7.95;;;;;;;32.17;30.31;95252.41;4931212;29;20027;-88
2023/09/15 09:57:16;;;;;;;11.85;8.48;;;;;;;32.36;30.03;95251.97;4930384;29;20466;-80
2023/09/15 09:59:43;;;;;;;10.02;6.05;;;;;;;32.45;29.94;95248.50;4932495;29;20486;-85
2023/09/15 10:02:08;;;;;;;6.10;5.47;;;;;;;32.86;29.61;95246.41;4917789;29;20035;-79
2023/09/15 10:04:33;;;;;;;10.23;6.47;;;;;;;33.39;28.83;95245.25;4933759;29;20019;-79
2023/09/15 10:06:59;;;;;;;7.05;5.95;;;;;;;33.89;27.99;95245.16;4918419;29;20239;-79
2023/09/15 10:09:25;;;;;;;7.40;6.18;;;;;;;34.28;26.84;95239.81;4950485;29;20030;-79
2023/09/15 10:11:52;;;;;;;8.25;6.20;;;;;;;34.59;26.84;95248.78;4918643;29;20039;-78
2023/09/15 10:14:18;;;;;;;7.68;6.35;;;;;;;34.87;26.17;95253.16;4933261;29;20054;-78
2023/09/15 10:16:44;;;;;;;7.28;5.82;;;;;;;34.91;25.88;95241.28;4917827;29;20043;-78
2023/09/15 10:19:11;;;;;;;9.88;6.53;;;;;;;34.93;25.81;95235.75;4917865;29;20086;-77
2023/09/15 10:21:36;;;;;;;8.05;6.28;;;;;;;35.28;25.15;95239.22;4933201;29;20050;-79
2023/09/15 10:24:07;;;;;;;10.73;5.97;;;;;;;35.60;24.54;95241.00;4918030;29;20019;-77
2023/09/15 10:26:33;;;;;;;7.68;6.28;;;;;;;36.05;24.44;95238.66;4933006;29;20023;-77
2023/09/15 10:29:03;;;;;;;8.07;6.32;;;;;;;36.08;24.34;95243.97;4934261;29;20031;-76
2023/09/15 10:31:30;;;;;;;7.18;6.15;;;;;;;36.23;23.79;95242.88;4916860;29;20027;-77
2023/09/15 10:34:00;;;;;;;8.07;6.95;;;;;;;36.13;23.82;95242.91;4933785;29;20466;-77
2023/09/15 10:36:27;;;;;;;10.20;7.50;;;;;;;35.89;23.87;95226.72;4917011;29;20605;-78
2023/09/15 10:38:52;;;;;;;19.50;9.30;;;;;;;36.04;24.19;95223.63;4917328;29;20038;-83
2023/09/15 10:41:44;;;;;;;12.70;7.45;;;;;;;36.17;23.56;95231.00;4932726;29;20035;-80
2023/09/15 10:44:10;;;;;;;12.98;7.13;;;;;;;36.02;23.88;95222.72;4929762;29;20047;-79
2023/09/15 10:46:37;;;;;;;8.30;7.25;;;;;;;35.73;24.20;95226.28;4932907;29;20043;-80
2023/09/15 10:49:17;;;;;;;9.70;7.82;;;;;;;35.36;24.50;95222.69;4932668;29;20517;-78
2023/09/15 10:51:54;;;;;;;13.48;9.65;;;;;;;35.58;24.27;95220.84;4917878;29;20446;-79
2023/09/15 10:54:20;;;;;;;13.38;8.98;;;;;;;35.67;24.10;95214.38;4932771;29;20498;-83
2023/09/15 10:56:50;;;;;;;9.63;8.10;;;;;;;35.92;23.85;95217.00;4916508;29;20038;-85
2023/09/15 10:59:18;;;;;;;12.57;7.25;;;;;;;36.23;23.42;95207.78;4917703;29;20039;-83
2023/09/15 11:01:45;;;;;;;9.48;7.28;;;;;;;37.19;22.48;95215.44;4932420;29;20034;-80
2023/09/15 11:04:20;;;;;;;10.48;7.85;;;;;;;37.82;21.74;95207.59;4917689;29;20143;-80
2023/09/15 11:06:48;;;;;;;8.93;7.45;;;;;;;38.42;20.71;95207.25;4933147;29;20027;-79
2023/09/15 11:09:14;;;;;;;8.40;7.05;;;;;;;38.81;20.37;95210.50;4932802;28;20126;-79
2023/09/15 11:11:47;;;;;;;12.95;7.45;;;;;;;39.24;20.10;95204.59;4932013;29;20031;-78
2023/09/15 11:14:17;;;;;;;9.27;7.55;;;;;;;39.26;20.16;95207.59;4932351;29;20035;-79
2023/09/15 11:16:49;;;;;;;9.02;7.68;;;;;;;39.24;19.70;95201.72;4934097;29;20301;-79
2023/09/15 11:19:15;;;;;;;9.38;7.30;;;;;;;39.64;19.62;95200.59;4951351;29;20121;-79
2023/09/15 11:21:41;;;;;;;9.57;6.93;;;;;;;40.00;18.65;95198.38;4950555;29;20030;-80
2023/09/15 11:24:09;;;;;;;10.15;8.05;;;;;;;39.44;19.03;95193.56;4950093;29;20031;-79